< Typhoon 199520 1995 Season Typhoon 199522 >
Typhoon 199521 (ZACK)
General InformationTrack Information on Google MapsDetailed Wind InformationList of All Images || Disaster Info.ResourceGoogle EarthGE AnimationAtom FeedGeoJSON
Detalied Best Track (Time Zone = UTC)
Year Month Day Hour Lat. Long. Pressure (hPa) Wind (kt) Class Image Chart
1995 10 25 00 7.2 137.5 1008 0 2 Image Chart
1995 10 25 06 7.5 137.1 1006 0 2 Image Chart
1995 10 25 12 7.6 136.6 1006 0 2 Image Chart
1995 10 25 18 7.7 135.7 1004 0 2 Image Chart
1995 10 26 00 8.1 134.5 1006 0 2 Image Chart
1995 10 26 06 8.4 133.8 1004 0 2 Image Chart
1995 10 26 12 8.7 133.0 1002 0 2 Image Chart
1995 10 26 18 9.1 132.1 1000 0 2 Image Chart
1995 10 27 00 9.7 131.0 996 35 3 Image Chart
1995 10 27 06 10.1 129.8 992 45 3 Image Chart
1995 10 27 12 10.3 128.5 990 50 4 Image Chart
1995 10 27 18 10.3 127.0 985 55 4 Image Chart
1995 10 28 00 10.5 125.8 985 55 4 Image Chart
1995 10 28 06 10.8 124.2 985 55 4 Image Chart
1995 10 28 12 10.8 122.9 990 50 4 Image Chart
1995 10 28 18 11.0 121.7 985 55 4 Image Chart
1995 10 29 00 11.2 120.5 985 55 4 Image Chart
1995 10 29 06 11.4 119.2 980 60 4 Image Chart
1995 10 29 12 11.5 118.2 975 65 5 Image Chart
1995 10 29 18 11.9 117.1 975 65 5 Image Chart
1995 10 30 00 12.5 116.2 970 70 5 Image Chart
1995 10 30 06 13.1 115.5 965 75 5 Image Chart
1995 10 30 12 13.8 114.9 960 80 5 Image Chart
1995 10 30 18 14.4 114.1 955 85 5 Image Chart
1995 10 31 00 14.7 113.3 955 85 5 Image Chart
1995 10 31 06 14.8 112.5 950 90 5 Image Chart
1995 10 31 12 14.8 111.7 950 90 5 Image Chart
1995 10 31 18 14.8 110.6 955 85 5 Image Chart
1995 11 1 00 14.9 109.7 960 80 5 Image Chart
1995 11 1 06 14.7 108.5 985 50 4 Image Chart
1995 11 1 12 14.6 107.2 996 35 3 Image Chart
1995 11 1 18 14.4 105.9 1002 0 2 Image Chart
1995 11 2 00 14.3 105.0 1004 0 2 Image Chart
Japan Meteorological Agency Best Track Data | Correction Date : 1996-01-19
< Typhoon 199520 1995 Season Typhoon 199522 >

Help